Time;durP1;ratioP1;P1;durP2;ratioP2;P2;SDS_P1;SDS_P2;PMS_P1;PMS_P2;Temp;Humidity;BMP_temperature;BMP_pressure;BME280_temperature;BME280_humidity;BME280_pressure;Samples;Min_cycle;Max_cycle;Signal;HPM_P1;HPM_P2
2023/02/27 00:01:56;;;;;;;10.20;4.70;;;;;;;0.17;72.52;100726.24;130740;1253;107686;-74
2023/02/27 00:05:01;;;;;;;12.90;7.60;;;;;;;0.11;72.44;100728.60;130738;1253;107370;-75
2023/02/27 00:08:07;;;;;;;20.00;11.00;;;;;;;0.09;72.44;100731.16;130655;1258;107546;-76
2023/02/27 00:11:13;;;;;;;18.10;9.10;;;;;;;0.09;72.39;100728.90;130698;1256;107562;-77
2023/02/27 00:14:18;;;;;;;10.00;3.40;;;;;;;0.09;72.74;100738.16;130637;1258;107281;-76
2023/02/27 00:17:24;;;;;;;10.50;5.00;;;;;;;0.11;72.80;100737.59;130808;1257;107525;-75
2023/02/27 00:20:31;;;;;;;8.70;3.90;;;;;;;0.15;72.71;100745.92;130716;1257;107514;-75
2023/02/27 00:23:36;;;;;;;11.90;6.10;;;;;;;0.23;72.36;100743.44;130771;1253;107304;-76
2023/02/27 00:26:42;;;;;;;9.70;4.10;;;;;;;0.28;72.52;100746.36;130680;1257;106703;-76
2023/02/27 00:29:47;;;;;;;10.80;4.40;;;;;;;0.27;72.90;100749.18;130589;1253;107353;-76
2023/02/27 00:32:53;;;;;;;10.70;4.90;;;;;;;0.24;72.76;100749.54;130582;1259;107541;-76
2023/02/27 00:36:01;;;;;;;7.60;3.90;;;;;;;0.22;72.47;100747.17;130638;1257;107497;-77
2023/02/27 00:39:06;;;;;;;9.10;3.70;;;;;;;0.17;73.16;100756.66;130695;1253;108705;-76
2023/02/27 00:42:12;;;;;;;8.60;3.60;;;;;;;0.11;73.18;100762.58;130749;1253;107659;-76
2023/02/27 00:45:19;;;;;;;6.70;3.60;;;;;;;0.07;73.04;100762.61;130693;1253;107576;-76
2023/02/27 00:48:26;;;;;;;8.50;3.60;;;;;;;0.05;73.56;100764.42;130656;1253;107529;-76
2023/02/27 00:51:32;;;;;;;9.10;3.70;;;;;;;0.02;73.24;100764.42;130737;1259;105761;-75
2023/02/27 00:54:37;;;;;;;7.20;2.90;;;;;;;-0.02;73.66;100763.52;130671;1257;106527;-75
2023/02/27 00:57:43;;;;;;;7.00;3.30;;;;;;;-0.01;73.46;100761.91;130805;1254;107382;-76
2023/02/27 01:00:48;;;;;;;8.10;3.60;;;;;;;0.04;73.41;100765.17;130819;1256;107498;-76
2023/02/27 01:03:54;;;;;;;8.50;3.60;;;;;;;0.11;73.15;100760.30;130910;1253;107355;-75
2023/02/27 01:06:59;;;;;;;8.20;3.70;;;;;;;0.15;73.33;100761.65;130847;1254;106546;-76
2023/02/27 01:10:06;;;;;;;7.00;3.70;;;;;;;0.17;73.36;100758.61;130883;1253;107701;-76
2023/02/27 01:13:12;;;;;;;8.80;3.50;;;;;;;0.14;73.64;100759.45;130931;1256;107558;-75
2023/02/27 01:16:17;;;;;;;34.30;15.60;;;;;;;0.10;73.19;100759.99;130775;1257;107581;-75
2023/02/27 01:19:24;;;;;;;10.50;5.20;;;;;;;0.10;73.32;100755.28;130765;1258;107515;-75
2023/02/27 01:22:29;;;;;;;38.60;19.30;;;;;;;0.03;73.79;100753.00;130672;1254;107609;-75
2023/02/27 01:25:35;;;;;;;36.50;17.20;;;;;;;-0.06;74.07;100755.30;130733;1257;107255;-76
2023/02/27 01:28:40;;;;;;;8.40;4.20;;;;;;;-0.08;73.88;100754.20;130650;1253;106685;-75
2023/02/27 01:31:47;;;;;;;28.10;12.10;;;;;;;-0.08;74.06;100754.02;130699;1259;107300;-76
2023/02/27 01:34:53;;;;;;;10.20;4.90;;;;;;;-0.04;73.84;100756.26;130634;1257;107462;-76
2023/02/27 01:37:58;;;;;;;26.80;11.60;;;;;;;0.05;73.83;100763.01;130686;1257;107562;-75
2023/02/27 01:41:06;;;;;;;14.60;6.50;;;;;;;0.10;73.88;100765.57;130704;1257;107631;-75
2023/02/27 01:44:13;;;;;;;17.30;8.40;;;;;;;0.11;74.04;100769.77;130661;1258;107479;-75
2023/02/27 01:47:19;;;;;;;15.00;6.90;;;;;;;0.07;74.19;100767.83;130762;1253;107396;-75
2023/02/27 01:50:25;;;;;;;9.50;4.70;;;;;;;0.05;74.00;100769.49;130690;1253;107296;-77
2023/02/27 01:53:34;;;;;;;12.20;8.30;;;;;;;0.01;74.21;100768.98;130745;1253;107546;-75
2023/02/27 01:56:41;;;;;;;9.80;4.80;;;;;;;-0.03;74.23;100769.34;130773;1253;107798;-76
2023/02/27 01:59:46;;;;;;;8.90;5.40;;;;;;;-0.05;74.40;100772.24;130689;1260;107509;-77
2023/02/27 02:03:00;;;;;;;13.00;7.80;;;;;;;-0.09;74.65;100771.54;130679;1257;105865;-75
2023/02/27 02:06:09;;;;;;;17.10;6.90;;;;;;;-0.08;74.33;100770.44;130662;1258;107594;-76
2023/02/27 02:09:17;;;;;;;9.00;5.10;;;;;;;-0.06;74.75;100769.31;130768;1257;107529;-76
2023/02/27 02:12:27;;;;;;;10.10;4.70;;;;;;;-0.03;74.69;100776.33;130601;1259;105480;-75
2023/02/27 02:15:41;;;;;;;8.50;4.40;;;;;;;-0.03;75.39;100775.27;130692;1267;107605;-76
2023/02/27 02:18:53;;;;;;;7.50;4.20;;;;;;;-0.03;74.65;100783.34;130789;1261;107255;-75
2023/02/27 02:22:24;;;;;;;;;;;;;;;-0.02;75.23;100781.88;130774;1253;107695;-74
2023/02/27 02:26:09;;;;;;;9.90;4.60;;;;;;;-0.01;75.75;100777.98;130713;1254;107546;-76
2023/02/27 02:30:02;;;;;;;8.90;4.40;;;;;;;-0.07;75.75;100788.05;130633;1259;107517;-77
2023/02/27 02:33:53;;;;;;;9.50;4.80;;;;;;;-0.12;76.95;100794.41;130646;1264;108678;-76
2023/02/27 02:37:33;;;;;;;8.30;4.40;;;;;;;-0.20;77.25;100792.88;130733;1254;108616;-75
2023/02/27 02:40:42;;;;;;;9.00;4.40;;;;;;;-0.17;76.97;100799.93;130719;1259;107515;-75
2023/02/27 02:44:00;;;;;;;7.80;4.60;;;;;;;-0.15;77.56;100799.65;130666;1259;106520;-74
2023/02/27 02:47:15;;;;;;;7.90;4.50;;;;;;;-0.17;78.14;100807.09;130702;1259;109312;-76
2023/02/27 02:50:27;;;;;;;11.20;5.30;;;;;;;-0.24;78.40;100809.63;130716;1253;108692;-76
2023/02/27 02:53:43;;;;;;;7.90;4.40;;;;;;;-0.28;78.56;100814.24;130787;1259;107564;-76
2023/02/27 02:56:55;;;;;;;8.20;4.40;;;;;;;-0.27;78.00;100820.13;130770;1258;105533;-75
2023/02/27 03:00:06;;;;;;;10.10;4.90;;;;;;;-0.29;78.38;100821.79;130720;1253;107492;-76
2023/02/27 03:03:18;;;;;;;8.80;4.60;;;;;;;-0.30;78.25;100828.16;130738;1259;107538;-75
2023/02/27 03:06:28;;;;;;;7.30;4.00;;;;;;;-0.27;77.95;100827.83;130769;1253;107629;-76
2023/02/27 03:09:38;;;;;;;10.60;5.00;;;;;;;-0.21;78.11;100826.48;130803;1254;107313;-75
2023/02/27 03:12:51;;;;;;;10.00;4.80;;;;;;;-0.17;77.75;100832.96;130760;1259;105741;-74
2023/02/27 03:16:01;;;;;;;9.40;4.60;;;;;;;-0.12;77.70;100836.77;130675;1257;107257;-76
2023/02/27 03:19:14;;;;;;;8.10;4.70;;;;;;;-0.10;77.77;100841.55;130838;1253;107486;-75
2023/02/27 03:22:26;;;;;;;9.50;4.60;;;;;;;-0.12;78.05;100843.23;130807;1257;108449;-75
2023/02/27 03:25:33;;;;;;;9.70;5.00;;;;;;;-0.18;78.53;100851.39;130600;1253;107653;-76
2023/02/27 03:28:47;;;;;;;12.30;5.50;;;;;;;-0.27;78.74;100857.52;130693;1257;107496;-76
2023/02/27 03:31:58;;;;;;;11.70;6.40;;;;;;;-0.31;79.09;100861.91;130573;1259;107602;-74
2023/02/27 03:35:06;;;;;;;10.60;5.20;;;;;;;-0.31;79.00;100866.46;130735;1259;107502;-76
2023/02/27 03:38:20;;;;;;;8.00;4.90;;;;;;;-0.26;78.77;100868.48;130789;1259;106744;-75
2023/02/27 03:41:32;;;;;;;11.30;6.00;;;;;;;-0.16;78.96;100865.27;130791;1253;107402;-75
2023/02/27 03:45:00;;;;;;;12.50;7.50;;;;;;;-0.08;78.12;100864.89;130784;1254;106622;-76
2023/02/27 03:48:08;;;;;;;12.20;6.60;;;;;;;-0.02;78.32;100864.45;130802;1259;107503;-78
2023/02/27 03:51:17;;;;;;;14.00;6.90;;;;;;;-0.02;77.84;100867.23;130639;1253;107236;-78
2023/02/27 03:54:27;;;;;;;12.60;6.40;;;;;;;-0.02;78.22;100869.33;130531;1259;108722;-74
2023/02/27 03:57:34;;;;;;;12.00;5.60;;;;;;;-0.06;78.35;100873.03;130681;1256;106430;-76
2023/02/27 04:00:40;;;;;;;10.20;5.60;;;;;;;-0.12;78.63;100873.11;130684;1257;107525;-75
2023/02/27 04:03:53;;;;;;;10.40;5.60;;;;;;;-0.17;78.38;100873.88;130662;1259;107519;-77
2023/02/27 04:07:23;;;;;;;14.50;6.90;;;;;;;-0.21;78.38;100874.20;130563;1256;107407;-76
2023/02/27 04:10:44;;;;;;;20.10;11.20;;;;;;;-0.26;79.10;100878.46;130771;1259;107385;-75
2023/02/27 04:14:14;;;;;;;69.00;36.40;;;;;;;-0.24;78.39;100882.73;130637;1256;107632;-77
2023/02/27 04:17:25;;;;;;;16.70;8.20;;;;;;;-0.09;78.44;100896.58;130577;1256;107621;-76
2023/02/27 04:20:44;;;;;;;19.20;11.30;;;;;;;0.01;78.32;100896.47;130567;1258;108737;-77
2023/02/27 04:23:57;;;;;;;13.90;7.80;;;;;;;0.14;78.11;100894.83;130601;1259;107504;-76
2023/02/27 04:27:11;;;;;;;17.20;10.90;;;;;;;0.25;77.80;100891.73;130565;1257;107392;-78
2023/02/27 04:30:27;;;;;;;14.40;8.40;;;;;;;0.32;77.63;100892.23;130645;1259;107498;-77
2023/02/27 04:33:44;;;;;;;12.00;7.60;;;;;;;0.37;77.70;100896.89;130595;1259;108787;-78
2023/02/27 04:36:57;;;;;;;16.20;10.20;;;;;;;0.30;77.73;100889.35;130533;1259;106556;-78
2023/02/27 04:40:08;;;;;;;12.10;7.30;;;;;;;0.33;77.66;100892.89;130566;1257;108491;-77
2023/02/27 04:43:16;;;;;;;11.20;5.70;;;;;;;0.29;77.71;100899.39;130617;1259;106119;-78
2023/02/27 04:46:26;;;;;;;12.70;7.40;;;;;;;0.17;78.24;100906.59;130565;1257;107540;-78
2023/02/27 04:49:36;;;;;;;9.70;6.10;;;;;;;0.02;78.58;100910.97;130641;1258;107215;-77
2023/02/27 04:52:45;;;;;;;11.80;6.50;;;;;;;-0.10;79.00;100909.90;130549;1253;107419;-77
2023/02/27 04:55:54;;;;;;;12.40;6.70;;;;;;;-0.16;78.87;100912.45;130698;1254;107485;-77
2023/02/27 04:59:03;;;;;;;10.00;5.70;;;;;;;-0.17;79.54;100918.11;130715;1267;107265;-77
2023/02/27 05:02:15;;;;;;;10.10;4.90;;;;;;;-0.18;79.71;100923.76;130791;1259;108036;-77
2023/02/27 05:05:27;;;;;;;9.60;5.90;;;;;;;-0.17;79.87;100929.31;130726;1259;107222;-77
2023/02/27 05:08:39;;;;;;;11.60;5.90;;;;;;;-0.14;79.68;100935.09;130804;1259;107415;-77
2023/02/27 05:11:52;;;;;;;12.20;6.40;;;;;;;-0.12;79.63;100939.38;130588;1270;107537;-78
2023/02/27 05:15:03;;;;;;;11.80;6.10;;;;;;;-0.13;79.82;100935.26;130696;1253;107553;-78
2023/02/27 05:18:11;;;;;;;20.40;8.50;;;;;;;-0.16;79.81;100939.59;130732;1260;108682;-77
2023/02/27 05:21:27;;;;;;;14.90;6.90;;;;;;;-0.20;79.89;100943.78;130656;1253;107514;-76
2023/02/27 05:24:41;;;;;;;18.40;9.80;;;;;;;-0.27;80.82;100946.85;130707;1259;107505;-77
2023/02/27 05:27:52;;;;;;;14.90;8.20;;;;;;;-0.31;81.02;100954.55;130682;1259;107550;-77
2023/02/27 05:31:03;;;;;;;13.30;7.10;;;;;;;-0.29;80.68;100959.02;130684;1259;108561;-77
2023/02/27 05:34:15;;;;;;;13.40;7.30;;;;;;;-0.25;80.83;100958.50;130690;1260;107495;-77
2023/02/27 05:37:27;;;;;;;15.20;7.30;;;;;;;-0.23;81.09;100963.83;130783;1259;106570;-76
2023/02/27 05:40:37;;;;;;;12.80;7.10;;;;;;;-0.23;80.78;100964.89;130703;1259;107586;-77
2023/02/27 05:43:46;;;;;;;13.40;7.50;;;;;;;-0.24;81.90;100961.41;130666;1253;107354;-77
2023/02/27 05:46:58;;;;;;;15.30;8.10;;;;;;;-0.28;81.53;100963.53;130708;1253;107416;-78
2023/02/27 05:50:09;;;;;;;15.50;8.30;;;;;;;-0.31;81.61;100963.13;130667;1257;107544;-78
2023/02/27 05:53:19;;;;;;;14.00;7.40;;;;;;;-0.35;82.11;100965.73;130787;1267;108659;-78
2023/02/27 05:56:29;;;;;;;12.20;7.10;;;;;;;-0.33;82.51;100966.55;130691;1259;107497;-76
2023/02/27 05:59:42;;;;;;;18.10;9.20;;;;;;;-0.28;82.22;100971.57;130721;1259;107534;-77
2023/02/27 06:02:50;;;;;;;50.60;21.60;;;;;;;-0.25;82.02;100971.25;130693;1257;107404;-76
2023/02/27 06:05:58;;;;;;;91.90;36.60;;;;;;;-0.19;81.78;100970.31;130573;1259;105943;-76
2023/02/27 06:09:03;;;;;;;19.80;9.20;;;;;;;-0.12;81.55;100974.86;130773;1257;107122;-76
2023/02/27 06:12:09;;;;;;;26.20;12.30;;;;;;;-0.11;81.73;100977.48;130708;1257;107618;-78
2023/02/27 06:15:16;;;;;;;15.60;8.80;;;;;;;-0.10;81.62;100980.59;130668;1259;107669;-77
2023/02/27 06:18:21;;;;;;;27.30;13.10;;;;;;;-0.10;81.54;100984.60;130813;1269;107226;-76
2023/02/27 06:21:27;;;;;;;133.50;78.50;;;;;;;-0.07;81.56;100982.72;130831;1257;106842;-76
2023/02/27 06:24:39;;;;;;;19.40;10.20;;;;;;;-0.01;81.43;100988.23;130946;1253;106995;-77
2023/02/27 06:27:45;;;;;;;16.90;8.20;;;;;;;0.10;81.18;100988.10;130673;1259;107689;-76
2023/02/27 06:30:55;;;;;;;15.80;8.40;;;;;;;0.23;81.16;100999.24;130797;1258;107567;-76
2023/02/27 06:34:01;;;;;;;19.10;10.80;;;;;;;0.29;80.98;101004.05;130750;1257;107449;-76
2023/02/27 06:37:07;;;;;;;17.60;9.60;;;;;;;0.28;80.87;101001.81;130932;1255;107526;-75
2023/02/27 06:40:14;;;;;;;13.80;7.80;;;;;;;0.31;80.50;101007.81;130621;1259;106864;-76
2023/02/27 06:43:21;;;;;;;13.00;6.70;;;;;;;0.30;80.28;101009.57;130618;1260;107227;-77
2023/02/27 06:46:27;;;;;;;12.70;6.50;;;;;;;0.30;79.93;101011.70;130685;1264;107271;-76
2023/02/27 06:49:33;;;;;;;11.50;6.70;;;;;;;0.39;80.16;101023.03;130623;1259;107157;-76
2023/02/27 06:52:38;;;;;;;10.30;5.60;;;;;;;0.44;79.92;101027.89;130622;1259;107508;-77
2023/02/27 06:55:44;;;;;;;13.60;7.10;;;;;;;0.48;79.83;101025.78;130669;1257;107575;-75
2023/02/27 06:58:50;;;;;;;12.00;6.80;;;;;;;0.55;79.69;101031.04;130625;1257;107516;-77
2023/02/27 07:01:57;;;;;;;12.70;7.60;;;;;;;0.60;79.79;101037.66;130686;1254;108469;-77
2023/02/27 07:05:03;;;;;;;10.60;6.20;;;;;;;0.64;79.39;101048.50;130714;1256;107381;-78
2023/02/27 07:08:09;;;;;;;9.50;4.20;;;;;;;0.66;78.29;101054.17;130652;1259;107552;-76
2023/02/27 07:11:15;;;;;;;6.30;3.20;;;;;;;0.59;75.75;101060.30;130618;1263;107371;-76
2023/02/27 07:14:20;;;;;;;5.80;3.00;;;;;;;0.53;75.50;101057.56;130625;1259;107436;-77
2023/02/27 07:17:26;;;;;;;7.80;3.40;;;;;;;0.54;76.35;101060.52;130691;1256;107257;-76
2023/02/27 07:20:32;;;;;;;9.90;4.20;;;;;;;0.57;75.79;101059.33;130738;1259;105527;-76
2023/02/27 07:23:37;;;;;;;7.90;3.50;;;;;;;0.60;75.50;101061.14;130663;1257;107926;-75
2023/02/27 07:26:43;;;;;;;4.10;2.60;;;;;;;0.57;74.22;101062.16;130629;1257;107997;-77
2023/02/27 07:29:48;;;;;;;4.50;2.70;;;;;;;0.57;74.25;101062.81;130655;1253;108663;-77
2023/02/27 07:32:54;;;;;;;3.80;2.20;;;;;;;0.57;73.22;101062.85;130685;1258;106572;-76
2023/02/27 07:36:00;;;;;;;3.80;2.20;;;;;;;0.61;72.92;101064.27;130681;1261;107499;-76
2023/02/27 07:39:07;;;;;;;3.70;1.90;;;;;;;0.63;73.22;101066.95;130660;1257;107458;-77
2023/02/27 07:42:13;;;;;;;3.00;1.50;;;;;;;0.73;72.78;101064.22;130758;1259;107238;-77
2023/02/27 07:45:19;;;;;;;3.40;1.60;;;;;;;0.77;72.25;101065.60;130856;1257;107506;-76
2023/02/27 07:48:24;;;;;;;3.90;1.70;;;;;;;0.88;73.29;101069.33;130853;1259;108788;-77
2023/02/27 07:51:30;;;;;;;3.70;1.40;;;;;;;0.99;71.83;101074.05;130800;1257;107659;-75
2023/02/27 07:54:37;;;;;;;3.00;1.30;;;;;;;1.05;71.62;101073.80;130699;1257;108457;-77
2023/02/27 07:57:44;;;;;;;4.40;2.20;;;;;;;1.10;70.64;101075.32;130781;1259;105826;-78
2023/02/27 08:00:49;;;;;;;3.70;1.90;;;;;;;1.09;69.33;101081.98;130754;1259;107555;-76
2023/02/27 08:03:56;;;;;;;3.30;1.50;;;;;;;1.06;69.62;101082.13;130801;1259;107482;-76
2023/02/27 08:07:02;;;;;;;3.00;1.40;;;;;;;1.11;68.89;101085.72;130831;1253;107467;-76
2023/02/27 08:10:09;;;;;;;11.30;7.50;;;;;;;1.11;68.99;101084.52;130838;1259;107433;-74
2023/02/27 08:13:15;;;;;;;13.90;6.00;;;;;;;1.12;69.41;101087.64;130799;1267;106718;-76
2023/02/27 08:16:21;;;;;;;5.40;3.10;;;;;;;1.15;70.32;101087.11;130798;1257;106545;-75
2023/02/27 08:19:26;;;;;;;6.90;3.50;;;;;;;1.16;68.77;101091.11;130748;1259;108426;-76
2023/02/27 08:22:32;;;;;;;4.60;2.30;;;;;;;1.07;67.36;101091.90;130739;1263;107360;-76
2023/02/27 08:25:37;;;;;;;2.60;1.60;;;;;;;1.01;67.76;101095.14;130753;1267;107495;-76
2023/02/27 08:28:43;;;;;;;4.30;3.20;;;;;;;1.02;69.03;101098.43;130815;1257;107433;-76
2023/02/27 08:31:49;;;;;;;3.50;1.50;;;;;;;1.01;67.55;101098.84;130818;1265;106678;-76
2023/02/27 08:34:54;;;;;;;2.40;1.50;;;;;;;1.00;68.92;101095.20;130742;1259;107280;-76
2023/02/27 08:38:00;;;;;;;5.20;2.00;;;;;;;1.01;67.64;101109.54;130703;1259;107481;-76
2023/02/27 08:41:06;;;;;;;2.70;1.60;;;;;;;1.00;67.42;101109.05;130727;1254;107251;-77
2023/02/27 08:44:12;;;;;;;2.70;1.50;;;;;;;0.98;65.77;101115.25;130690;1259;107528;-76
2023/02/27 08:47:18;;;;;;;3.90;1.80;;;;;;;0.95;65.34;101113.49;130761;1258;108012;-76
2023/02/27 08:50:24;;;;;;;3.20;1.90;;;;;;;0.95;65.88;101119.41;130786;1254;107470;-76
2023/02/27 08:53:29;;;;;;;3.40;2.00;;;;;;;1.03;64.63;101114.89;130699;1260;107464;-77
2023/02/27 08:56:35;;;;;;;4.50;2.10;;;;;;;1.06;65.13;101114.02;130716;1257;107997;-77
2023/02/27 08:59:40;;;;;;;4.80;2.70;;;;;;;1.21;66.08;101122.44;130817;1267;109365;-74
2023/02/27 09:02:46;;;;;;;5.50;2.80;;;;;;;1.40;65.77;101125.95;130799;1260;107482;-77
2023/02/27 09:05:52;;;;;;;6.30;4.70;;;;;;;1.65;66.18;101118.77;130751;1254;108628;-76
2023/02/27 09:08:58;;;;;;;6.20;3.20;;;;;;;1.90;64.05;101119.31;130745;1254;107246;-77
2023/02/27 09:12:04;;;;;;;3.50;2.00;;;;;;;2.01;64.98;101122.30;130646;1267;107552;-77
2023/02/27 09:15:12;;;;;;;3.40;2.00;;;;;;;2.00;63.96;101128.10;130697;1260;107227;-77
2023/02/27 09:18:17;;;;;;;5.20;2.50;;;;;;;1.95;62.04;101127.46;130772;1253;107206;-76
2023/02/27 09:21:23;;;;;;;2.80;1.50;;;;;;;1.85;61.58;101131.32;130666;1257;107275;-76
2023/02/27 09:24:29;;;;;;;3.50;1.60;;;;;;;1.66;59.93;101136.25;130672;1257;107437;-76
2023/02/27 09:27:35;;;;;;;4.50;1.30;;;;;;;1.47;59.74;101138.57;130661;1259;107391;-76
2023/02/27 09:30:41;;;;;;;2.40;1.40;;;;;;;1.35;61.69;101137.39;130783;1257;107407;-75
2023/02/27 09:33:46;;;;;;;3.40;1.60;;;;;;;1.42;62.64;101142.66;130841;1258;108798;-75
2023/02/27 09:36:52;;;;;;;3.50;1.60;;;;;;;1.62;62.50;101139.63;130688;1259;107274;-76
2023/02/27 09:39:58;;;;;;;2.00;1.40;;;;;;;1.77;62.05;101142.04;130519;1257;107441;-77
2023/02/27 09:43:10;;;;;;;2.40;1.30;;;;;;;1.93;61.33;101149.49;130612;1260;108125;-76
2023/02/27 09:46:19;;;;;;;2.40;1.10;;;;;;;1.97;57.09;101150.57;130648;1259;107671;-78
2023/02/27 09:49:32;;;;;;;2.90;1.70;;;;;;;1.88;56.26;101149.20;130674;1259;107474;-77
2023/02/27 09:52:39;;;;;;;4.50;1.50;;;;;;;1.91;58.29;101149.98;130756;1259;107974;-77
2023/02/27 09:55:45;;;;;;;2.60;1.10;;;;;;;2.06;59.35;101157.46;130639;1254;107462;-77
2023/02/27 09:59:01;;;;;;;2.30;1.20;;;;;;;2.20;59.10;101162.05;130625;1259;107613;-77
2023/02/27 10:02:21;;;;;;;3.00;1.10;;;;;;;2.27;56.68;101162.02;130649;1261;107555;-77
2023/02/27 10:05:36;;;;;;;1.80;1.10;;;;;;;2.27;56.43;101164.34;130642;1257;106491;-77
2023/02/27 10:08:52;;;;;;;3.20;1.00;;;;;;;2.21;55.43;101170.08;130732;1259;107539;-77
2023/02/27 10:12:23;;;;;;;3.10;1.50;;;;;;;2.24;54.41;101178.02;130681;1266;107612;-77
2023/02/27 10:15:34;;;;;;;2.60;1.60;;;;;;;2.32;55.14;101179.17;130668;1254;107376;-77
2023/02/27 10:18:50;;;;;;;3.60;1.60;;;;;;;2.40;55.94;101174.23;130811;1257;107459;-77
2023/02/27 10:21:59;;;;;;;2.20;1.20;;;;;;;2.49;55.98;101177.27;130801;1267;107444;-76
2023/02/27 10:25:12;;;;;;;5.40;1.80;;;;;;;2.53;56.87;101176.54;130756;1260;108706;-78
2023/02/27 10:28:20;;;;;;;2.70;1.60;;;;;;;2.43;54.61;101176.86;130869;1264;106309;-77
2023/02/27 10:31:30;;;;;;;4.00;1.70;;;;;;;2.30;53.74;101180.81;130819;1253;107499;-76
2023/02/27 10:34:38;;;;;;;3.20;1.70;;;;;;;2.19;53.86;101182.63;130755;1257;107581;-77
2023/02/27 10:38:01;;;;;;;1.80;1.20;;;;;;;2.12;53.94;101188.06;130658;1255;107438;-77
2023/02/27 10:41:11;;;;;;;5.80;2.30;;;;;;;2.03;53.47;101180.43;130561;1257;107612;-77
2023/02/27 10:44:18;;;;;;;4.20;1.80;;;;;;;2.00;54.80;101185.16;130686;1257;106502;-77
2023/02/27 10:47:25;;;;;;;3.50;2.00;;;;;;;1.89;53.99;101184.62;130763;1257;107467;-76
2023/02/27 10:50:33;;;;;;;3.40;1.90;;;;;;;1.82;55.96;101184.41;130674;1260;107417;-77
2023/02/27 10:53:39;;;;;;;4.20;2.30;;;;;;;1.99;56.79;101181.84;130665;1260;107513;-77
2023/02/27 10:56:49;;;;;;;2.50;1.40;;;;;;;2.22;55.91;101178.47;130522;1258;107418;-77
2023/02/27 10:59:58;;;;;;;4.20;2.30;;;;;;;2.44;56.91;101174.52;130729;1254;107535;-77
2023/02/27 11:03:04;;;;;;;4.60;2.10;;;;;;;2.74;56.17;101174.74;130550;1258;107557;-76
2023/02/27 11:06:12;;;;;;;2.70;1.60;;;;;;;2.79;53.20;101175.37;130659;1257;107696;-79
2023/02/27 11:09:23;;;;;;;4.50;2.80;;;;;;;2.79;53.76;101173.41;130801;1257;107388;-77
2023/02/27 11:12:32;;;;;;;5.90;2.90;;;;;;;2.66;52.75;101173.93;130725;1260;109718;-78
2023/02/27 11:15:39;;;;;;;3.50;2.00;;;;;;;2.58;54.60;101173.48;130794;1258;106909;-77
2023/02/27 11:18:48;;;;;;;4.40;1.90;;;;;;;2.60;53.88;101178.62;130625;1254;106735;-78
2023/02/27 11:22:05;;;;;;;4.10;2.30;;;;;;;2.79;55.35;101181.83;130593;1257;107439;-77
2023/02/27 11:25:24;;;;;;;4.70;2.70;;;;;;;3.08;54.26;101177.17;130569;1254;107667;-79
2023/02/27 11:28:31;;;;;;;3.50;2.20;;;;;;;3.15;52.90;101169.77;130620;1257;107486;-77
2023/02/27 11:31:39;;;;;;;4.60;2.20;;;;;;;3.01;53.05;101169.27;130685;1255;107548;-78
2023/02/27 11:34:51;;;;;;;4.90;2.70;;;;;;;2.93;51.78;101170.02;130809;1267;107646;-78
2023/02/27 11:38:00;;;;;;;5.70;2.90;;;;;;;2.85;53.13;101164.33;130753;1257;107411;-77
2023/02/27 11:41:09;;;;;;;4.10;2.10;;;;;;;2.74;54.77;101164.02;130677;1254;107291;-77
2023/02/27 11:44:19;;;;;;;3.70;1.90;;;;;;;2.54;52.28;101165.26;130808;1257;108745;-77
2023/02/27 11:47:31;;;;;;;5.00;2.50;;;;;;;2.15;50.03;101166.52;130770;1256;106561;-77
2023/02/27 11:50:52;;;;;;;6.80;4.00;;;;;;;2.01;50.96;101163.51;130775;1254;107308;-78
2023/02/27 11:54:18;;;;;;;3.90;2.00;;;;;;;2.01;50.50;101161.08;130760;1258;107349;-77
2023/02/27 11:57:28;;;;;;;3.60;2.30;;;;;;;2.07;50.93;101159.55;130815;1258;107541;-77
2023/02/27 12:00:41;;;;;;;2.90;1.60;;;;;;;2.21;51.63;101170.39;130662;1257;107548;-77
2023/02/27 12:03:55;;;;;;;1.70;1.20;;;;;;;2.33;49.67;101167.51;130702;1254;108631;-78
2023/02/27 12:07:10;;;;;;;2.70;1.60;;;;;;;2.31;51.05;101171.51;130755;1257;107473;-77
2023/02/27 12:10:21;;;;;;;3.00;2.00;;;;;;;2.33;50.67;101165.96;130666;1257;107414;-77
2023/02/27 12:13:31;;;;;;;3.40;1.70;;;;;;;2.37;51.77;101167.69;130660;1254;106266;-77
2023/02/27 12:16:41;;;;;;;3.30;1.50;;;;;;;2.43;51.39;101162.66;130652;1259;107505;-77
2023/02/27 12:20:08;;;;;;;2.50;1.40;;;;;;;2.40;48.63;101165.09;130906;1257;107405;-77
2023/02/27 12:23:21;;;;;;;3.70;1.80;;;;;;;2.30;49.85;101166.44;130702;1259;107403;-77
2023/02/27 12:26:33;;;;;;;3.60;2.10;;;;;;;2.36;50.91;101170.36;130644;1258;107543;-79
2023/02/27 12:30:04;;;;;;;2.70;1.70;;;;;;;2.36;48.85;101170.16;130893;1255;108191;-76
2023/02/27 12:33:18;;;;;;;6.40;2.20;;;;;;;2.30;49.56;101171.35;130914;1255;107213;-78
2023/02/27 12:36:24;;;;;;;3.60;1.80;;;;;;;2.34;50.35;101172.36;130570;1257;107305;-77
2023/02/27 12:39:31;;;;;;;2.70;1.70;;;;;;;2.44;50.68;101168.03;130584;1267;107583;-76
2023/02/27 12:43:01;;;;;;;4.50;2.50;;;;;;;2.48;50.45;101170.79;130610;1257;107458;-77
2023/02/27 12:46:27;;;;;;;4.60;2.40;;;;;;;2.52;50.15;101178.32;130560;1257;107401;-77
2023/02/27 12:49:41;;;;;;;3.00;1.80;;;;;;;2.62;50.89;101185.02;130626;1258;107583;-78
2023/02/27 12:53:01;;;;;;;4.40;2.80;;;;;;;2.71;51.05;101182.96;130590;1254;107474;-78
2023/02/27 12:56:13;;;;;;;5.30;3.40;;;;;;;2.82;50.97;101188.55;130612;1258;107887;-77
2023/02/27 12:59:33;;;;;;;5.10;3.60;;;;;;;2.85;50.24;101190.53;130813;1257;107503;-77
2023/02/27 13:03:10;;;;;;;6.90;4.20;;;;;;;2.82;50.00;101186.65;130660;1253;108531;-77
2023/02/27 13:06:31;;;;;;;4.90;2.50;;;;;;;2.96;51.58;101186.42;130639;1257;107571;-78
2023/02/27 13:09:44;;;;;;;4.90;3.00;;;;;;;2.95;51.00;101190.14;130594;1258;106925;-76
2023/02/27 13:12:55;;;;;;;3.80;2.20;;;;;;;2.86;50.76;101193.64;130770;1257;108423;-77
2023/02/27 13:16:05;;;;;;;4.90;2.50;;;;;;;2.74;50.51;101191.07;130781;1257;107886;-76
2023/02/27 13:19:19;;;;;;;3.50;2.10;;;;;;;2.59;49.20;101193.77;130705;1257;107553;-77
2023/02/27 13:22:33;;;;;;;9.80;4.90;;;;;;;2.54;50.40;101193.88;130761;1258;107535;-77
2023/02/27 13:25:42;;;;;;;9.20;5.10;;;;;;;2.55;50.56;101198.88;130642;1258;107356;-78
2023/02/27 13:28:49;;;;;;;5.90;3.90;;;;;;;2.57;51.43;101198.65;130739;1258;107974;-77
2023/02/27 13:32:01;;;;;;;4.50;2.40;;;;;;;2.58;49.00;101209.15;130558;1258;107409;-76
2023/02/27 13:35:12;;;;;;;;;;;;;;;2.53;50.15;101219.03;130550;1257;106452;-78
2023/02/27 13:38:41;;;;;;;6.20;3.10;;;;;;;2.48;49.21;101220.66;130511;1257;107452;-77
2023/02/27 13:41:47;;;;;;;5.70;3.10;;;;;;;2.49;50.05;101221.16;130545;1257;107537;-77
2023/02/27 13:44:53;;;;;;;5.30;3.00;;;;;;;2.57;50.57;101222.66;130679;1257;108631;-76
2023/02/27 13:47:58;;;;;;;5.00;3.10;;;;;;;2.68;50.32;101213.17;130625;1257;107481;-77
2023/02/27 13:51:05;;;;;;;4.90;3.00;;;;;;;2.76;51.00;101210.48;130590;1268;107284;-77
2023/02/27 13:54:24;;;;;;;7.60;4.20;;;;;;;2.76;50.17;101219.09;130513;1257;107504;-77
2023/02/27 13:57:32;;;;;;;5.50;2.50;;;;;;;2.72;50.39;101218.41;130626;1257;108307;-76
2023/02/27 14:00:38;;;;;;;4.70;2.60;;;;;;;2.62;50.07;101221.39;130573;1257;107497;-77
2023/02/27 14:03:52;;;;;;;5.70;2.80;;;;;;;2.52;50.67;101218.73;130554;1257;107573;-78
2023/02/27 14:07:02;;;;;;;5.50;2.70;;;;;;;2.53;50.96;101218.13;130536;1257;107861;-76
2023/02/27 14:10:11;;;;;;;4.50;2.40;;;;;;;2.53;50.68;101216.89;130631;1257;106503;-77
2023/02/27 14:13:53;;;;;;;4.50;2.30;;;;;;;2.57;51.05;101218.66;130681;1254;107271;-76
2023/02/27 14:17:02;;;;;;;4.20;2.40;;;;;;;2.55;51.05;101216.65;130505;1257;106525;-77
2023/02/27 14:20:14;;;;;;;8.40;4.20;;;;;;;2.58;51.98;101223.70;130545;1257;108696;-78
2023/02/27 14:23:25;;;;;;;7.10;3.40;;;;;;;2.63;52.05;101231.70;130494;1257;106731;-76
2023/02/27 14:26:33;;;;;;;5.30;2.50;;;;;;;2.61;51.37;101235.30;130634;1257;108638;-77
2023/02/27 14:29:38;;;;;;;4.80;2.90;;;;;;;2.53;51.31;101247.49;130521;1257;106464;-76